Time;durP1;ratioP1;P1;durP2;ratioP2;P2;SDS_P1;SDS_P2;PMS_P1;PMS_P2;Temp;Humidity;BMP_temperature;BMP_pressure;BME280_temperature;BME280_humidity;BME280_pressure;Samples;Min_cycle;Max_cycle;Signal;HPM_P1;HPM_P2
2023/01/09 00:00:42;;;;;;;7.75;2.50;;;6.90;99.90;;;;;;5003615;28;20295;-66
2023/01/09 00:03:07;;;;;;;7.40;2.90;;;7.00;99.90;;;;;;4988128;28;20042;-64
2023/01/09 00:05:33;;;;;;;7.07;2.90;;;7.00;99.90;;;;;;4987287;28;20061;-65
2023/01/09 00:07:58;;;;;;;8.93;2.95;;;7.00;99.90;;;;;;4986418;28;20481;-63
2023/01/09 00:10:24;;;;;;;7.55;3.13;;;7.10;99.90;;;;;;4986950;28;20084;-63
2023/01/09 00:12:49;;;;;;;11.60;3.13;;;7.20;99.90;;;;;;4999376;28;20422;-65
2023/01/09 00:15:15;;;;;;;8.00;2.70;;;7.20;99.90;;;;;;5000926;28;20490;-66
2023/01/09 00:17:41;;;;;;;5.45;2.70;;;7.30;99.90;;;;;;5003504;28;20121;-63
2023/01/09 00:20:11;;;;;;;8.77;3.05;;;7.20;99.90;;;;;;5001894;28;20568;-63
2023/01/09 00:22:36;;;;;;;8.07;3.05;;;7.20;99.90;;;;;;4986887;28;20560;-62
2023/01/09 00:25:03;;;;;;;6.00;2.85;;;7.20;99.90;;;;;;4987090;28;20136;-62
2023/01/09 00:27:33;;;;;;;6.93;2.70;;;7.20;99.90;;;;;;5004359;28;20038;-65
2023/01/09 00:29:59;;;;;;;5.35;2.25;;;7.20;99.90;;;;;;4989908;28;20048;-62
2023/01/09 00:32:25;;;;;;;4.63;1.95;;;7.10;99.90;;;;;;5003595;28;20548;-63
2023/01/09 00:34:51;;;;;;;5.18;2.38;;;7.20;99.90;;;;;;5001601;28;20401;-64
2023/01/09 00:37:17;;;;;;;5.22;2.10;;;7.10;99.90;;;;;;5005393;28;20061;-63
2023/01/09 00:39:43;;;;;;;5.28;1.90;;;7.10;99.90;;;;;;4986773;28;20054;-64
2023/01/09 00:42:17;;;;;;;5.97;1.80;;;7.00;99.90;;;;;;5005149;28;20083;-64
2023/01/09 00:44:51;;;;;;;2.55;1.92;;;7.00;99.90;;;;;;4987005;28;20049;-63
2023/01/09 00:47:22;;;;;;;6.35;1.80;;;7.00;99.90;;;;;;5004009;28;20053;-65
2023/01/09 00:49:48;;;;;;;4.20;1.85;;;7.00;99.90;;;;;;5005467;28;20038;-65
2023/01/09 00:52:14;;;;;;;4.35;1.60;;;7.00;99.90;;;;;;4989664;28;20057;-65
2023/01/09 00:54:42;;;;;;;4.07;2.03;;;7.00;99.90;;;;;;4988944;28;20370;-65
2023/01/09 00:57:11;;;;;;;6.90;2.30;;;6.90;99.90;;;;;;4983763;28;20034;-64
2023/01/09 00:59:38;;;;;;;5.45;2.35;;;7.00;99.90;;;;;;5000105;28;20329;-65
2023/01/09 01:02:03;;;;;;;6.53;2.45;;;6.90;99.90;;;;;;4984513;28;20060;-64
2023/01/09 01:09:57;;;;;;;8.05;2.80;;;6.90;99.90;;;;;;4986841;28;20075;-65
2023/01/09 01:12:23;;;;;;;8.10;2.67;;;6.80;99.90;;;;;;4983733;28;20045;-64
2023/01/09 01:14:49;;;;;;;3.88;2.50;;;6.80;99.90;;;;;;4984572;28;20069;-65
2023/01/09 01:17:14;;;;;;;7.90;2.42;;;6.80;99.90;;;;;;4984688;28;20476;-64
2023/01/09 01:19:40;;;;;;;7.05;2.80;;;6.70;99.90;;;;;;4983903;28;20041;-65
2023/01/09 01:22:05;;;;;;;7.47;2.60;;;6.80;99.90;;;;;;5004133;28;20034;-64
2023/01/09 01:24:31;;;;;;;6.72;2.90;;;6.70;99.90;;;;;;4985156;28;20069;-64
2023/01/09 01:26:56;;;;;;;5.57;2.75;;;6.60;99.90;;;;;;5002873;28;20044;-65
2023/01/09 01:29:22;;;;;;;7.50;3.00;;;6.70;99.90;;;;;;4983089;28;20041;-65
2023/01/09 01:31:47;;;;;;;8.43;2.92;;;6.70;99.90;;;;;;5002737;28;20554;-65
2023/01/09 01:34:13;;;;;;;8.15;2.80;;;6.60;99.90;;;;;;4999727;28;20431;-65
2023/01/09 01:36:39;;;;;;;7.25;2.70;;;6.70;99.90;;;;;;4987307;28;20046;-66
2023/01/09 01:39:04;;;;;;;8.93;2.97;;;6.60;99.90;;;;;;5004479;28;20397;-65
2023/01/09 01:41:30;;;;;;;8.88;2.80;;;6.70;99.90;;;;;;4982906;28;20037;-66
2023/01/09 01:44:00;;;;;;;6.72;2.63;;;6.60;99.90;;;;;;4997369;28;20053;-64
2023/01/09 01:46:26;;;;;;;8.32;3.10;;;6.50;99.90;;;;;;4985072;28;20037;-65
2023/01/09 01:49:09;;;;;;;8.40;3.00;;;6.60;99.90;;;;;;4983160;28;20038;-65
2023/01/09 01:51:41;;;;;;;6.30;2.55;;;6.50;99.90;;;;;;5002908;28;20040;-65
2023/01/09 01:54:11;;;;;;;7.80;3.28;;;6.50;99.90;;;;;;4999493;28;20385;-65
2023/01/09 01:56:40;;;;;;;5.65;2.85;;;6.40;99.90;;;;;;4986693;28;20041;-65
2023/01/09 01:59:20;;;;;;;8.73;3.25;;;6.40;99.90;;;;;;4985047;28;20768;-65
2023/01/09 02:01:50;;;;;;;10.77;3.25;;;6.40;99.90;;;;;;5002541;28;20038;-65
2023/01/09 02:04:16;;;;;;;12.52;3.13;;;6.30;99.90;;;;;;4980674;28;20068;-65
2023/01/09 02:06:44;;;;;;;8.65;2.70;;;6.40;99.90;;;;;;4999649;28;20033;-65
2023/01/09 02:09:14;;;;;;;7.75;3.13;;;6.30;99.90;;;;;;4983993;28;20050;-66
2023/01/09 02:11:44;;;;;;;8.68;3.70;;;6.30;99.90;;;;;;4985349;28;20443;-64
2023/01/09 02:14:11;;;;;;;8.40;3.63;;;6.30;99.90;;;;;;4996513;28;20125;-65
2023/01/09 02:16:53;;;;;;;10.00;3.25;;;6.40;99.90;;;;;;4968672;28;20042;-65
2023/01/09 02:19:43;;;;;;;7.90;3.22;;;6.30;99.90;;;;;;4981802;28;20050;-65
2023/01/09 02:22:18;;;;;;;6.53;3.05;;;6.30;99.90;;;;;;4977985;28;20046;-65
2023/01/09 02:24:43;;;;;;;10.07;3.17;;;6.30;99.90;;;;;;4980482;28;20124;-65
2023/01/09 02:27:13;;;;;;;9.70;3.40;;;6.10;99.90;;;;;;4987536;28;20054;-66
2023/01/09 02:30:05;;;;;;;9.80;3.15;;;6.10;99.90;;;;;;4997977;28;20069;-63
2023/01/09 02:32:47;;;;;;;9.87;3.17;;;6.10;99.90;;;;;;4986095;28;20408;-65
2023/01/09 02:35:26;;;;;;;10.15;3.30;;;6.00;99.90;;;;;;4984482;28;20048;-65
2023/01/09 02:38:12;;;;;;;9.75;3.50;;;6.00;99.90;;;;;;5001081;28;20053;-65
2023/01/09 02:40:51;;;;;;;10.88;3.25;;;6.00;99.90;;;;;;5003633;28;20457;-65
2023/01/09 02:43:17;;;;;;;10.60;3.60;;;5.80;99.90;;;;;;4984163;28;20065;-65
2023/01/09 02:45:42;;;;;;;11.88;3.63;;;5.80;99.90;;;;;;5002302;28;20444;-64
2023/01/09 02:48:11;;;;;;;13.20;3.30;;;5.80;99.90;;;;;;4989708;28;20041;-65
2023/01/09 02:51:14;;;;;;;11.80;3.75;;;5.80;99.90;;;;;;4999949;28;20563;-66
2023/01/09 02:54:21;;;;;;;12.23;3.55;;;5.70;99.90;;;;;;4985122;28;20041;-65
2023/01/09 02:57:18;;;;;;;10.88;3.60;;;5.60;99.90;;;;;;4965254;28;20042;-65
2023/01/09 03:00:18;;;;;;;9.93;3.63;;;5.70;99.90;;;;;;4965417;28;20061;-65
2023/01/09 03:02:47;;;;;;;11.05;3.58;;;5.50;99.90;;;;;;4998645;28;20061;-65
2023/01/09 03:05:24;;;;;;;8.55;3.50;;;5.50;99.90;;;;;;4984576;28;20045;-65
2023/01/09 03:08:01;;;;;;;9.93;3.67;;;5.50;99.90;;;;;;4988800;28;20140;-65
2023/01/09 03:10:51;;;;;;;9.90;3.78;;;5.40;99.90;;;;;;4989961;28;20045;-65
2023/01/09 03:13:20;;;;;;;10.45;4.00;;;5.40;99.90;;;;;;5005355;28;20484;-65
2023/01/09 03:15:49;;;;;;;9.02;3.90;;;5.30;99.90;;;;;;4985244;28;20056;-65
2023/01/09 03:18:18;;;;;;;12.50;3.92;;;5.20;99.90;;;;;;5005002;28;20328;-66
2023/01/09 03:20:45;;;;;;;12.82;4.68;;;5.20;99.90;;;;;;5003461;28;20054;-66
2023/01/09 03:23:10;;;;;;;13.07;4.15;;;5.20;99.90;;;;;;4988523;28;20060;-65
2023/01/09 03:25:36;;;;;;;13.95;4.95;;;5.20;99.90;;;;;;4987682;28;20512;-65
2023/01/09 03:28:08;;;;;;;14.25;4.50;;;5.20;99.90;;;;;;4988270;28;20042;-65
2023/01/09 03:30:35;;;;;;;14.30;4.55;;;5.20;99.90;;;;;;5002998;28;20038;-65
2023/01/09 03:33:01;;;;;;;12.13;4.70;;;5.10;99.90;;;;;;4998783;28;20595;-66
2023/01/09 03:35:26;;;;;;;15.32;4.97;;;5.10;99.90;;;;;;5004921;28;20126;-65
2023/01/09 03:37:53;;;;;;;14.15;5.10;;;5.00;99.90;;;;;;5002424;28;20033;-66
2023/01/09 03:40:19;;;;;;;12.48;4.95;;;5.10;99.90;;;;;;4988492;28;20050;-65
2023/01/09 03:42:45;;;;;;;17.60;5.35;;;4.90;99.90;;;;;;5006041;28;20046;-65
2023/01/09 03:45:11;;;;;;;13.63;5.30;;;4.90;99.90;;;;;;4987700;28;20404;-65
2023/01/09 03:47:37;;;;;;;12.93;5.38;;;5.00;99.90;;;;;;5000172;28;20042;-66
2023/01/09 03:50:03;;;;;;;16.35;5.63;;;4.80;99.90;;;;;;4987075;28;20045;-66
2023/01/09 03:52:28;;;;;;;14.35;5.90;;;4.90;99.90;;;;;;5006457;28;20033;-66
2023/01/09 03:54:54;;;;;;;17.85;5.55;;;4.90;99.90;;;;;;4987640;28;20038;-66
2023/01/09 03:57:19;;;;;;;15.82;6.13;;;4.90;99.90;;;;;;5002312;28;20248;-65
2023/01/09 03:59:45;;;;;;;14.70;6.55;;;4.80;99.90;;;;;;5005748;28;20046;-65
2023/01/09 04:02:10;;;;;;;18.90;6.75;;;4.80;99.90;;;;;;4981774;28;20174;-65
2023/01/09 04:04:36;;;;;;;17.92;6.70;;;4.80;99.90;;;;;;4999158;28;20033;-66
2023/01/09 04:07:02;;;;;;;16.40;7.13;;;4.80;99.90;;;;;;4986586;28;20034;-66
2023/01/09 04:09:27;;;;;;;18.48;8.02;;;4.70;99.90;;;;;;4985675;28;20869;-66
2023/01/09 04:11:53;;;;;;;19.67;7.78;;;4.70;99.90;;;;;;4982390;28;20042;-65
2023/01/09 04:14:18;;;;;;;22.20;8.35;;;4.70;99.90;;;;;;4987447;28;20048;-65
2023/01/09 04:16:44;;;;;;;22.80;8.90;;;4.70;99.90;;;;;;5003718;28;20509;-66
2023/01/09 04:19:09;;;;;;;21.23;8.88;;;4.60;99.90;;;;;;4986783;28;20038;-65
2023/01/09 04:21:35;;;;;;;19.95;9.25;;;4.70;99.90;;;;;;4985592;28;20128;-65
2023/01/09 04:24:01;;;;;;;24.10;9.32;;;4.60;99.90;;;;;;4967586;28;20487;-66
2023/01/09 04:26:27;;;;;;;27.23;10.00;;;4.60;99.90;;;;;;4985258;28;20502;-65
2023/01/09 04:28:52;;;;;;;28.02;11.13;;;4.60;99.90;;;;;;5002028;28;20041;-66
2023/01/09 04:31:18;;;;;;;31.77;10.35;;;4.50;99.90;;;;;;4983989;28;20069;-65
2023/01/09 04:33:44;;;;;;;27.67;10.48;;;4.50;99.90;;;;;;4986595;28;20161;-66
2023/01/09 04:36:09;;;;;;;28.52;10.88;;;4.50;99.90;;;;;;4998742;28;20033;-65
2023/01/09 04:38:35;;;;;;;28.27;11.20;;;4.60;99.90;;;;;;4986593;28;20041;-65
2023/01/09 04:41:00;;;;;;;37.38;12.10;;;4.50;99.90;;;;;;4984554;28;20042;-66
2023/01/09 04:43:26;;;;;;;31.25;12.25;;;4.50;99.90;;;;;;4984233;28;20053;-65
2023/01/09 04:45:52;;;;;;;34.38;12.50;;;4.50;99.90;;;;;;4988434;28;20054;-65
2023/01/09 04:48:17;;;;;;;31.77;11.60;;;4.50;99.90;;;;;;4980819;28;21124;-65
2023/01/09 04:50:43;;;;;;;35.55;12.75;;;4.50;99.90;;;;;;4986781;28;20049;-66
2023/01/09 04:53:08;;;;;;;34.20;13.52;;;4.50;99.90;;;;;;4985929;28;20469;-66
2023/01/09 04:55:34;;;;;;;38.65;13.93;;;4.50;99.90;;;;;;5002256;28;20487;-65
2023/01/09 04:57:59;;;;;;;37.33;14.88;;;4.50;99.90;;;;;;4986120;28;20034;-65
2023/01/09 05:00:25;;;;;;;36.88;14.07;;;4.40;99.90;;;;;;4987010;28;20042;-65
2023/01/09 05:02:51;;;;;;;36.70;14.63;;;4.40;99.90;;;;;;4984433;28;20037;-65
2023/01/09 05:05:16;;;;;;;38.03;15.18;;;4.30;99.90;;;;;;5002228;28;20443;-65
2023/01/09 05:07:42;;;;;;;39.78;16.30;;;4.30;99.90;;;;;;4986784;28;20041;-65
2023/01/09 05:10:09;;;;;;;36.00;15.10;;;4.30;99.90;;;;;;5000266;28;20033;-65
2023/01/09 05:12:35;;;;;;;41.95;16.63;;;4.30;99.90;;;;;;4982683;28;20558;-65
2023/01/09 05:15:02;;;;;;;37.22;15.93;;;4.20;99.90;;;;;;5002359;28;20034;-65
2023/01/09 05:17:28;;;;;;;42.30;16.25;;;4.20;99.90;;;;;;4985667;28;20117;-65
2023/01/09 05:19:53;;;;;;;40.60;16.77;;;4.20;99.90;;;;;;5000984;28;20129;-65
2023/01/09 05:22:19;;;;;;;41.72;16.75;;;4.30;99.90;;;;;;4983316;28;20042;-65
2023/01/09 05:24:45;;;;;;;45.72;17.33;;;4.30;99.90;;;;;;4984104;28;20162;-65
2023/01/09 05:27:11;;;;;;;45.03;16.15;;;4.20;99.90;;;;;;5000553;28;20194;-65
2023/01/09 05:29:36;;;;;;;45.47;16.65;;;4.20;99.90;;;;;;4984801;28;20038;-64
2023/01/09 05:32:02;;;;;;;37.67;15.88;;;4.10;99.90;;;;;;4982975;28;20440;-64
2023/01/09 05:34:27;;;;;;;38.42;16.35;;;4.20;99.90;;;;;;4981007;28;20126;-65
2023/01/09 05:36:53;;;;;;;34.97;15.40;;;4.20;99.90;;;;;;4985652;28;20050;-66
2023/01/09 05:39:19;;;;;;;40.25;15.93;;;4.20;99.90;;;;;;4985498;28;20761;-65
2023/01/09 05:41:44;;;;;;;39.35;15.35;;;4.10;99.90;;;;;;5000714;28;20511;-66
2023/01/09 05:44:10;;;;;;;39.30;16.00;;;4.20;99.90;;;;;;5002935;28;20033;-65
2023/01/09 05:46:36;;;;;;;42.00;15.13;;;4.20;99.90;;;;;;4998819;28;20057;-65
2023/01/09 05:49:01;;;;;;;38.13;14.63;;;4.10;99.90;;;;;;5000911;28;20064;-65
2023/01/09 05:51:27;;;;;;;36.03;13.98;;;4.20;99.90;;;;;;4965218;28;20045;-64
2023/01/09 05:53:52;;;;;;;41.42;14.95;;;4.10;99.90;;;;;;4984795;28;20116;-65
2023/01/09 05:56:18;;;;;;;35.40;14.10;;;4.20;99.90;;;;;;4997207;28;20488;-65
2023/01/09 05:58:43;;;;;;;36.28;14.32;;;4.20;99.90;;;;;;4986078;28;20145;-64
2023/01/09 06:01:09;;;;;;;39.67;14.70;;;4.00;99.90;;;;;;5002553;28;20069;-66
2023/01/09 06:03:34;;;;;;;36.08;14.25;;;4.10;99.90;;;;;;4983386;28;20137;-66
2023/01/09 06:06:00;;;;;;;35.38;14.18;;;4.10;99.90;;;;;;5001745;28;20400;-66
2023/01/09 06:08:26;;;;;;;32.25;14.27;;;4.10;99.90;;;;;;4984293;28;20120;-65
2023/01/09 06:10:51;;;;;;;32.53;13.13;;;4.20;99.90;;;;;;4985032;28;20042;-65
2023/01/09 06:13:17;;;;;;;36.72;13.77;;;4.20;99.90;;;;;;4981969;28;20057;-65
2023/01/09 06:15:42;;;;;;;33.78;13.00;;;4.10;99.90;;;;;;4985611;28;20046;-64
2023/01/09 06:18:08;;;;;;;29.27;12.10;;;4.10;99.90;;;;;;4982672;28;20045;-65
2023/01/09 06:20:34;;;;;;;32.90;12.45;;;4.10;99.90;;;;;;4980268;28;20128;-66
2023/01/09 06:22:59;;;;;;;38.53;12.82;;;4.10;99.90;;;;;;4985623;28;20049;-65
2023/01/09 06:25:25;;;;;;;33.33;12.32;;;4.20;99.90;;;;;;4988041;28;20069;-64
2023/01/09 06:27:51;;;;;;;37.33;13.10;;;4.10;99.90;;;;;;5004310;28;20045;-65
2023/01/09 06:30:17;;;;;;;30.27;12.20;;;4.10;99.90;;;;;;5004852;28;20102;-65
2023/01/09 06:32:43;;;;;;;32.97;11.10;;;4.00;99.90;;;;;;4980007;28;20045;-65
2023/01/09 06:35:09;;;;;;;29.73;10.65;;;3.90;99.90;;;;;;4984018;28;20041;-65
2023/01/09 06:37:35;;;;;;;30.05;12.10;;;4.00;99.90;;;;;;4985245;28;20038;-65
2023/01/09 06:40:00;;;;;;;30.02;10.75;;;4.00;99.90;;;;;;4984233;28;20046;-65
2023/01/09 06:42:26;;;;;;;24.70;10.10;;;4.10;99.90;;;;;;4960160;28;20044;-65
2023/01/09 06:44:51;;;;;;;25.75;9.65;;;4.20;99.90;;;;;;4999770;28;20477;-69
2023/01/09 06:47:17;;;;;;;26.27;9.73;;;4.30;99.90;;;;;;4981072;28;20041;-69
2023/01/09 06:49:43;;;;;;;29.88;9.70;;;4.40;99.90;;;;;;4983286;28;20054;-69
2023/01/09 06:52:08;;;;;;;26.92;8.60;;;4.40;99.90;;;;;;4983339;28;20049;-69
2023/01/09 06:54:34;;;;;;;22.92;8.43;;;4.50;99.90;;;;;;4986641;28;20443;-68
2023/01/09 06:57:00;;;;;;;25.30;8.32;;;4.60;99.90;;;;;;4986858;28;20034;-67
2023/01/09 06:59:25;;;;;;;26.33;9.20;;;4.60;99.90;;;;;;4986284;28;20034;-67
2023/01/09 07:01:51;;;;;;;26.83;8.15;;;4.50;99.90;;;;;;4986107;28;21968;-67
2023/01/09 07:04:17;;;;;;;17.00;8.00;;;4.60;99.90;;;;;;4986374;28;20046;-67
2023/01/09 07:06:45;;;;;;;23.00;9.00;;;4.70;99.90;;;;;;4963165;28;20049;-69
2023/01/09 07:09:12;;;;;;;22.92;9.05;;;4.80;99.90;;;;;;4986836;28;20359;-69
2023/01/09 07:11:38;;;;;;;26.48;9.05;;;4.80;99.90;;;;;;4983251;28;20034;-68
2023/01/09 07:14:04;;;;;;;22.88;9.32;;;4.80;99.90;;;;;;4985206;28;20030;-67
2023/01/09 07:16:29;;;;;;;28.88;9.00;;;4.80;99.90;;;;;;4982979;28;20052;-70
2023/01/09 07:18:55;;;;;;;22.02;9.52;;;4.80;99.90;;;;;;4984964;28;20038;-68
2023/01/09 07:21:21;;;;;;;26.92;9.82;;;4.90;99.90;;;;;;4986974;28;20045;-68
2023/01/09 07:23:46;;;;;;;25.55;8.95;;;5.00;99.90;;;;;;4985729;28;20477;-68
2023/01/09 07:26:12;;;;;;;26.83;10.02;;;5.00;99.90;;;;;;4985304;28;20049;-69
2023/01/09 07:28:37;;;;;;;26.80;9.18;;;5.00;99.90;;;;;;4982311;28;20567;-67
2023/01/09 07:31:06;;;;;;;26.73;10.00;;;4.90;99.90;;;;;;4985208;28;20046;-69
2023/01/09 07:33:32;;;;;;;39.10;9.38;;;5.00;99.90;;;;;;4987561;28;20076;-69
2023/01/09 07:35:57;;;;;;;32.72;9.20;;;5.00;99.90;;;;;;4986637;28;20070;-68
2023/01/09 07:38:23;;;;;;;25.10;9.68;;;5.00;99.90;;;;;;4986301;28;20524;-70
2023/01/09 07:40:48;;;;;;;25.42;8.40;;;5.10;99.90;;;;;;4985555;28;20105;-69
2023/01/09 07:43:14;;;;;;;26.45;9.70;;;5.10;99.90;;;;;;4986615;28;20073;-69
2023/01/09 07:45:40;;;;;;;20.23;8.75;;;5.10;99.90;;;;;;5004684;28;20041;-68
2023/01/09 07:48:05;;;;;;;24.65;8.48;;;5.10;99.90;;;;;;4981968;28;20362;-67
2023/01/09 07:50:31;;;;;;;21.55;8.18;;;5.10;99.90;;;;;;5004634;28;20046;-67
2023/01/09 07:52:57;;;;;;;22.98;8.23;;;5.10;99.90;;;;;;4968707;28;20536;-67
2023/01/09 07:55:22;;;;;;;24.17;8.55;;;5.10;99.90;;;;;;4993271;28;20096;-67
2023/01/09 07:57:51;;;;;;;18.88;8.77;;;5.10;99.90;;;;;;4989249;28;20041;-64
2023/01/09 08:00:19;;;;;;;27.55;7.80;;;5.10;99.90;;;;;;4990962;28;20505;-65
2023/01/09 08:02:49;;;;;;;23.42;7.40;;;5.20;99.90;;;;;;4982161;28;20069;-64
2023/01/09 08:05:15;;;;;;;20.42;7.95;;;5.30;99.90;;;;;;4973112;28;20111;-66
2023/01/09 08:07:40;;;;;;;21.02;7.50;;;5.30;99.90;;;;;;4987838;28;21447;-64
2023/01/09 08:10:06;;;;;;;18.30;7.68;;;5.30;99.90;;;;;;4985856;28;20053;-65
2023/01/09 08:12:32;;;;;;;26.88;7.68;;;5.30;99.90;;;;;;4985373;28;20069;-63
2023/01/09 08:14:58;;;;;;;25.10;8.05;;;5.40;99.90;;;;;;4986578;28;20029;-62
2023/01/09 08:17:23;;;;;;;20.15;6.78;;;5.40;99.90;;;;;;4982548;28;20053;-63
2023/01/09 08:19:49;;;;;;;20.02;6.88;;;5.40;99.90;;;;;;4988847;28;20507;-63
2023/01/09 08:22:14;;;;;;;19.17;6.85;;;5.40;99.90;;;;;;4988725;28;20069;-63
2023/01/09 08:24:40;;;;;;;17.65;6.75;;;5.40;99.90;;;;;;5006644;28;20046;-63
2023/01/09 08:27:06;;;;;;;21.40;7.28;;;5.50;99.90;;;;;;4987143;28;20037;-64
2023/01/09 08:29:31;;;;;;;20.98;6.45;;;5.40;99.90;;;;;;4989180;28;20052;-62
2023/01/09 08:31:57;;;;;;;19.48;6.10;;;5.50;99.90;;;;;;5004759;28;20050;-63
2023/01/09 08:34:22;;;;;;;17.45;6.45;;;5.50;99.90;;;;;;4989783;28;20037;-63
2023/01/09 08:36:48;;;;;;;24.02;6.28;;;5.60;99.90;;;;;;5003243;28;20038;-63
2023/01/09 08:39:13;;;;;;;14.60;5.30;;;5.60;99.90;;;;;;4986249;28;20100;-62
2023/01/09 08:47:07;;;;;;;21.00;5.55;;;5.70;99.90;;;;;;4986365;28;20393;-62
2023/01/09 08:49:36;;;;;;;20.08;5.47;;;5.70;99.90;;;;;;4970979;28;20428;-63
2023/01/09 08:52:04;;;;;;;16.88;5.10;;;5.80;99.90;;;;;;5006639;28;20034;-62
2023/01/09 08:54:29;;;;;;;18.15;5.45;;;5.90;99.90;;;;;;4988144;28;20042;-62
2023/01/09 08:56:55;;;;;;;20.67;5.43;;;5.80;99.90;;;;;;4987542;28;20129;-62
2023/01/09 08:59:21;;;;;;;22.33;5.20;;;5.90;99.90;;;;;;5004346;28;20392;-62
2023/01/09 09:01:46;;;;;;;21.50;5.85;;;5.90;99.90;;;;;;4986378;28;20038;-62
2023/01/09 09:04:12;;;;;;;19.73;6.22;;;6.00;99.90;;;;;;4989106;28;20229;-62
2023/01/09 09:06:38;;;;;;;16.35;5.90;;;6.10;99.90;;;;;;4990937;28;20101;-64
2023/01/09 09:09:05;;;;;;;20.40;5.22;;;6.10;99.90;;;;;;4989642;28;20052;-63
2023/01/09 09:11:34;;;;;;;20.55;5.65;;;6.20;99.90;;;;;;5008389;28;20526;-64
2023/01/09 09:14:00;;;;;;;21.65;6.15;;;6.20;99.90;;;;;;4982562;28;20045;-63
2023/01/09 09:16:26;;;;;;;24.40;6.22;;;6.30;99.90;;;;;;4984412;28;20045;-63
2023/01/09 09:18:52;;;;;;;20.42;6.20;;;6.20;99.90;;;;;;4985063;28;20045;-64
2023/01/09 09:21:19;;;;;;;18.50;5.43;;;6.30;99.90;;;;;;4983163;28;20077;-64
2023/01/09 09:23:45;;;;;;;21.52;6.05;;;6.30;99.90;;;;;;4998122;28;20050;-64
2023/01/09 09:26:10;;;;;;;16.73;6.00;;;6.50;99.90;;;;;;4984993;28;20531;-65
2023/01/09 09:28:36;;;;;;;27.85;6.65;;;6.40;99.90;;;;;;5001730;28;20073;-65
2023/01/09 09:31:06;;;;;;;20.60;5.78;;;6.50;99.90;;;;;;4983901;28;20128;-64
2023/01/09 09:33:31;;;;;;;18.30;5.68;;;6.40;99.90;;;;;;4985301;28;20120;-65
2023/01/09 09:35:58;;;;;;;14.90;5.85;;;6.40;99.90;;;;;;4986275;28;20624;-64
2023/01/09 09:38:23;;;;;;;23.17;5.38;;;6.50;99.90;;;;;;4983165;28;20252;-64
2023/01/09 09:41:02;;;;;;;22.63;6.10;;;6.60;99.90;;;;;;4986576;28;20057;-64
2023/01/09 09:46:43;;;;;;;24.35;6.25;;;6.50;99.90;;;;;;4983446;28;20717;-65
2023/01/09 09:49:20;;;;;;;15.60;5.95;;;6.70;99.90;;;;;;5000914;28;20037;-64
2023/01/09 09:51:58;;;;;;;16.00;5.90;;;6.70;99.90;;;;;;4986025;28;20741;-65
2023/01/09 09:54:47;;;;;;;16.15;5.90;;;6.60;99.90;;;;;;4983513;28;20042;-65
2023/01/09 09:57:24;;;;;;;15.45;5.85;;;6.60;99.90;;;;;;4983112;28;20050;-65
2023/01/09 09:59:51;;;;;;;18.25;5.55;;;6.70;99.90;;;;;;4987086;28;20072;-66
2023/01/09 10:02:31;;;;;;;17.67;5.60;;;6.70;99.90;;;;;;4984681;28;21197;-64
2023/01/09 10:05:06;;;;;;;18.23;6.43;;;6.70;99.90;;;;;;4998853;28;20555;-65
2023/01/09 10:07:40;;;;;;;14.98;5.85;;;6.70;99.90;;;;;;4984299;28;20072;-64
2023/01/09 10:10:15;;;;;;;22.15;6.07;;;6.70;99.90;;;;;;5000147;28;20049;-65
2023/01/09 10:12:54;;;;;;;17.25;6.03;;;6.70;99.90;;;;;;4982386;28;20226;-65
2023/01/09 10:15:43;;;;;;;18.27;6.47;;;6.80;99.90;;;;;;4984366;28;20041;-64
2023/01/09 10:18:29;;;;;;;13.32;6.15;;;6.70;99.90;;;;;;4983373;28;20528;-64
2023/01/09 10:21:15;;;;;;;15.82;5.95;;;6.80;99.90;;;;;;4986556;28;20053;-64
2023/01/09 10:23:58;;;;;;;16.88;5.88;;;6.80;99.90;;;;;;5001368;28;20034;-64
2023/01/09 10:26:35;;;;;;;14.15;6.32;;;6.90;99.90;;;;;;4982480;28;20078;-64
2023/01/09 10:29:28;;;;;;;24.10;6.72;;;6.80;99.90;;;;;;4983744;28;20465;-64
2023/01/09 10:32:14;;;;;;;15.60;6.10;;;6.80;99.90;;;;;;5002043;28;20412;-64
2023/01/09 10:34:49;;;;;;;18.88;6.53;;;6.90;99.90;;;;;;4986242;28;20037;-66
2023/01/09 10:37:29;;;;;;;20.08;6.78;;;7.00;99.90;;;;;;4986027;28;20111;-64
2023/01/09 10:40:04;;;;;;;18.80;6.80;;;7.10;99.90;;;;;;4989158;28;20050;-64
2023/01/09 10:42:35;;;;;;;15.85;7.22;;;7.00;99.90;;;;;;4989008;28;20041;-64
2023/01/09 10:45:16;;;;;;;19.38;7.22;;;7.00;99.90;;;;;;4981114;28;20080;-64
2023/01/09 10:47:43;;;;;;;18.80;7.03;;;6.90;99.90;;;;;;4989515;28;20424;-66
2023/01/09 10:50:34;;;;;;;21.15;7.60;;;7.00;99.90;;;;;;4985213;28;20409;-64
2023/01/09 10:53:11;;;;;;;17.45;7.13;;;7.10;99.90;;;;;;4986295;28;20042;-65
2023/01/09 10:55:46;;;;;;;20.65;7.07;;;7.10;99.90;;;;;;4989585;28;20045;-64
2023/01/09 10:58:17;;;;;;;19.65;7.38;;;7.10;99.90;;;;;;4987603;28;20759;-66
2023/01/09 11:00:44;;;;;;;19.65;8.13;;;7.20;99.90;;;;;;4987609;28;20654;-65
2023/01/09 11:03:12;;;;;;;26.35;8.20;;;7.10;99.90;;;;;;4988038;28;20065;-65
2023/01/09 11:05:37;;;;;;;21.63;8.52;;;7.10;99.90;;;;;;4977640;28;20492;-65
2023/01/09 11:08:10;;;;;;;26.13;9.60;;;7.10;99.90;;;;;;4986991;28;20038;-64
2023/01/09 11:10:49;;;;;;;;;;;7.10;99.90;;;;;;4985874;28;20567;-65
2023/01/09 11:13:25;;;;;;;21.60;9.50;;;7.00;99.90;;;;;;4985992;28;20367;-66
2023/01/09 11:16:15;;;;;;;27.92;11.20;;;7.00;99.90;;;;;;4987381;28;20521;-65
2023/01/09 11:18:52;;;;;;;26.80;11.02;;;6.80;99.90;;;;;;4988793;28;20537;-65
2023/01/09 11:21:29;;;;;;;28.33;11.23;;;6.90;99.90;;;;;;4988218;28;20393;-64
2023/01/09 11:24:15;;;;;;;28.67;11.48;;;6.90;99.90;;;;;;4964790;28;20042;-65
2023/01/09 11:26:41;;;;;;;34.97;12.93;;;6.90;99.90;;;;;;4987611;28;20435;-66
2023/01/09 11:29:12;;;;;;;33.78;12.27;;;7.10;99.90;;;;;;5006159;28;20072;-65
2023/01/09 11:31:39;;;;;;;35.78;13.23;;;7.10;99.90;;;;;;5004349;28;20532;-65
2023/01/09 11:34:14;;;;;;;32.70;11.70;;;7.10;99.90;;;;;;4989018;28;20046;-64
2023/01/09 11:36:40;;;;;;;33.47;12.93;;;7.10;99.90;;;;;;4994283;28;20088;-65
2023/01/09 11:39:24;;;;;;;37.40;13.32;;;7.20;99.90;;;;;;4989955;28;20069;-65
2023/01/09 11:41:56;;;;;;;33.00;12.52;;;7.30;99.90;;;;;;4991169;28;20042;-68
2023/01/09 11:44:23;;;;;;;35.17;14.15;;;7.20;99.90;;;;;;4995750;28;20440;-64
2023/01/09 11:46:49;;;;;;;38.45;14.70;;;7.20;99.90;;;;;;4989302;28;20057;-66
2023/01/09 11:49:21;;;;;;;39.47;15.45;;;7.30;99.90;;;;;;4988172;28;20416;-66
2023/01/09 11:52:19;;;;;;;35.60;14.18;;;7.40;99.90;;;;;;4990780;28;20104;-66
2023/01/09 11:55:03;;;;;;;30.13;11.10;;;7.40;99.90;;;;;;4982695;28;20065;-66
2023/01/09 11:57:30;;;;;;;40.05;14.82;;;7.40;99.90;;;;;;4975410;28;20082;-66
2023/01/09 12:00:00;;;;;;;36.55;14.88;;;7.50;99.90;;;;;;4986304;28;20238;-66
2023/01/09 12:02:32;;;;;;;34.28;14.23;;;7.40;99.90;;;;;;4993451;28;20054;-66
2023/01/09 12:05:24;;;;;;;39.00;13.43;;;7.50;99.90;;;;;;4994260;28;20085;-65
2023/01/09 12:07:57;;;;;;;33.28;13.27;;;7.50;99.90;;;;;;4988319;28;20088;-66
2023/01/09 12:10:56;;;;;;;37.10;14.73;;;7.50;99.90;;;;;;5004568;28;20489;-66
2023/01/09 12:13:28;;;;;;;32.42;13.05;;;7.50;99.90;;;;;;4993021;28;20037;-65
2023/01/09 12:16:07;;;;;;;29.13;13.68;;;7.60;99.90;;;;;;4993262;28;20038;-67
2023/01/09 12:18:32;;;;;;;34.65;14.55;;;7.60;99.90;;;;;;5004942;28;20033;-66
2023/01/09 12:21:40;;;;;;;33.17;13.80;;;7.70;99.90;;;;;;4992342;28;20050;-66
2023/01/09 12:24:43;;;;;;;32.22;14.13;;;7.70;99.90;;;;;;4992284;28;20104;-66
2023/01/09 12:27:44;;;;;;;35.28;13.80;;;7.70;99.90;;;;;;5005333;28;20444;-67
2023/01/09 12:30:16;;;;;;;30.92;13.38;;;7.80;99.90;;;;;;4986377;28;20046;-65
2023/01/09 12:32:56;;;;;;;34.92;13.65;;;7.90;99.90;;;;;;4993881;28;20121;-65
2023/01/09 12:35:46;;;;;;;35.25;15.20;;;7.90;99.90;;;;;;4986002;28;20501;-66
2023/01/09 12:38:27;;;;;;;38.65;15.23;;;7.90;99.90;;;;;;4993638;28;20033;-65
2023/01/09 12:41:21;;;;;;;36.20;13.38;;;7.90;99.90;;;;;;4994610;28;20045;-65
2023/01/09 12:44:09;;;;;;;27.60;11.60;;;7.90;99.90;;;;;;4987241;28;20065;-67
2023/01/09 12:46:58;;;;;;;29.90;12.43;;;7.80;99.90;;;;;;4994602;28;20129;-66
2023/01/09 12:49:28;;;;;;;33.17;12.60;;;7.70;99.90;;;;;;4991161;28;20041;-67
2023/01/09 12:52:22;;;;;;;31.25;12.07;;;7.70;99.90;;;;;;4993915;28;20045;-66
2023/01/09 12:54:54;;;;;;;32.80;12.82;;;7.70;99.90;;;;;;5008944;28;20381;-66
2023/01/09 12:57:47;;;;;;;34.55;12.70;;;7.80;99.90;;;;;;5010614;28;20485;-65
2023/01/09 13:00:49;;;;;;;36.58;13.43;;;7.70;99.90;;;;;;5008041;28;20037;-66
2023/01/09 13:03:32;;;;;;;30.67;12.68;;;7.70;99.90;;;;;;4879334;29;20047;-67
2023/01/09 13:06:00;;;;;;;37.25;14.05;;;7.80;99.90;;;;;;4998509;28;20112;-67
2023/01/09 13:08:57;;;;;;;31.02;12.73;;;7.70;99.90;;;;;;4999254;28;20037;-69
2023/01/09 13:11:45;;;;;;;28.63;11.68;;;7.70;99.90;;;;;;4982669;28;20136;-66
2023/01/09 13:14:43;;;;;;;29.15;9.98;;;7.70;99.90;;;;;;4991540;28;20042;-66
2023/01/09 13:17:16;;;;;;;32.38;11.32;;;7.80;99.90;;;;;;4992331;28;20058;-65